Portada
METAR-TAF:

METAR-TAF

Aeroports :

Copper Harbor, Michigan, Estats Units d'Amèrica

latitud: 47-28-01N, longitud: 087-52-30W, altitud: 190 m

Observació

L'informe es va fer fa 20 minuts, a les 06:51 UTC
Vent 15 kt del Nord-Est
Temperatura 3°C
Humitat 75%
Pressió 1014 hPa

METAR: KP59 300651Z AUTO 05015KT 03/M01 A2993 RMK AO1 PK WND 07032/0553 SLP145 T00281011

Hora: 03:11 (07:11 UTC)


TAF: manca

Observacions i pronòstics meteorològics de més de 4000 aeroports (METAR i TAF).

Les estacions disponibles són els punts grocs i vermells al mapa.

Posi el ratolí al punt desitjat per veure el nom de l'estació.

Feu clic per veure les observacions i els pronòstics meteorològics.

Per canviar el mapa: feu clic els botons verds amb una creu de color negre per apropar; al botó verd amb un guió per allunyar la imatge; o en les fletxes verdes per a mapes adjacents.


METAR-TAF: